Time;durP1;ratioP1;P1;durP2;ratioP2;P2;SDS_P1;SDS_P2;PMS_P1;PMS_P2;Temp;Humidity;BMP_temperature;BMP_pressure;BME280_temperature;BME280_humidity;BME280_pressure;Samples;Min_cycle;Max_cycle;Signal;HPM_P1;HPM_P2
2023/05/29 00:00:52;;;;;;;10.10;4.07;;;18.80;92.70;;;;;;4993313;28;20626;-35
2023/05/29 00:03:23;;;;;;;10.98;4.97;;;18.80;93.00;;;;;;4986011;28;20202;-35
2023/05/29 00:05:53;;;;;;;8.00;4.43;;;18.70;93.30;;;;;;4986762;28;20737;-34
2023/05/29 00:08:23;;;;;;;7.88;4.43;;;18.70;93.00;;;;;;4988987;28;20206;-35
2023/05/29 00:10:50;;;;;;;7.35;4.45;;;18.60;92.90;;;;;;4995483;28;20879;-35
2023/05/29 00:13:20;;;;;;;11.02;5.03;;;18.60;93.10;;;;;;4995718;28;20222;-35
2023/05/29 00:15:49;;;;;;;7.90;4.75;;;18.50;93.40;;;;;;4996205;28;20991;-35
2023/05/29 00:18:16;;;;;;;7.68;4.82;;;18.50;93.30;;;;;;4985238;28;20266;-35
2023/05/29 00:20:48;;;;;;;8.23;4.72;;;18.40;93.00;;;;;;4994301;28;20198;-35
2023/05/29 00:23:16;;;;;;;8.13;4.75;;;18.40;93.30;;;;;;4996814;28;20605;-35
2023/05/29 00:25:43;;;;;;;7.50;4.43;;;18.30;93.30;;;;;;4992163;28;20210;-35
2023/05/29 00:28:18;;;;;;;8.70;4.80;;;18.20;93.20;;;;;;4988250;28;20206;-35
2023/05/29 00:30:47;;;;;;;7.57;4.22;;;18.20;93.00;;;;;;4985994;28;20352;-35
2023/05/29 00:33:18;;;;;;;8.30;4.78;;;18.20;92.80;;;;;;5001848;28;20202;-35
2023/05/29 00:35:45;;;;;;;8.50;4.88;;;18.10;93.00;;;;;;4993792;28;20317;-35
2023/05/29 00:38:15;;;;;;;9.48;4.85;;;18.10;93.10;;;;;;4985621;28;20783;-35
2023/05/29 00:40:42;;;;;;;8.88;5.00;;;18.10;93.10;;;;;;4986674;28;20631;-35
2023/05/29 00:43:09;;;;;;;6.57;4.35;;;18.00;93.40;;;;;;4983859;28;20199;-35
2023/05/29 00:45:36;;;;;;;10.27;5.38;;;18.00;93.40;;;;;;4984679;28;20217;-36
2023/05/29 00:48:08;;;;;;;9.15;5.43;;;17.90;94.00;;;;;;4982841;28;20638;-37
2023/05/29 00:50:38;;;;;;;8.73;5.13;;;17.90;93.90;;;;;;4984423;28;20210;-36
2023/05/29 00:53:10;;;;;;;9.93;4.22;;;17.80;93.90;;;;;;4987730;28;20206;-36
2023/05/29 00:55:40;;;;;;;13.10;5.70;;;17.70;93.60;;;;;;4985864;28;20288;-36
2023/05/29 00:58:10;;;;;;;11.63;5.53;;;17.60;94.20;;;;;;4985922;28;20300;-36
2023/05/29 01:00:38;;;;;;;10.15;5.90;;;17.60;94.10;;;;;;5000345;28;20240;-36
2023/05/29 01:03:07;;;;;;;11.73;5.95;;;17.50;94.10;;;;;;4992779;28;20664;-37
2023/05/29 01:05:37;;;;;;;8.82;4.97;;;17.40;94.40;;;;;;4991948;28;20272;-36
2023/05/29 01:08:06;;;;;;;10.48;5.65;;;17.40;94.00;;;;;;4996568;28;20242;-37
2023/05/29 01:10:34;;;;;;;6.50;4.85;;;17.30;95.40;;;;;;4987367;28;20545;-36
2023/05/29 01:13:26;;;;;;;6.95;4.93;;;17.30;94.30;;;;;;4998959;28;20218;-36
2023/05/29 01:16:08;;;;;;;9.32;5.53;;;17.30;94.30;;;;;;4988665;28;20231;-37
2023/05/29 01:18:54;;;;;;;7.85;5.22;;;17.20;94.30;;;;;;5001938;28;20194;-36
2023/05/29 01:21:40;;;;;;;8.68;5.25;;;17.20;94.80;;;;;;4993216;28;20225;-36
2023/05/29 01:24:15;;;;;;;7.05;4.80;;;17.10;94.30;;;;;;4989309;28;20209;-36
2023/05/29 01:26:49;;;;;;;8.93;5.38;;;17.00;94.20;;;;;;4988653;28;20314;-36
2023/05/29 01:29:22;;;;;;;12.30;6.15;;;17.00;94.40;;;;;;4985973;28;20205;-36
2023/05/29 01:31:51;;;;;;;10.05;5.60;;;17.00;94.90;;;;;;4996975;28;20217;-36
2023/05/29 01:34:18;;;;;;;8.60;5.60;;;17.00;94.20;;;;;;4996578;28;20225;-36
2023/05/29 01:36:48;;;;;;;7.85;5.30;;;16.90;94.50;;;;;;4995788;28;20224;-36
2023/05/29 01:39:16;;;;;;;9.18;5.15;;;16.90;94.80;;;;;;4988553;28;20202;-36
2023/05/29 01:41:49;;;;;;;11.05;6.25;;;16.80;94.20;;;;;;4993919;28;20288;-36
2023/05/29 01:44:17;;;;;;;7.40;5.38;;;16.80;95.00;;;;;;4991374;28;20524;-37
2023/05/29 01:46:45;;;;;;;9.32;5.47;;;16.70;94.60;;;;;;4984932;28;21142;-36
2023/05/29 01:49:14;;;;;;;10.77;5.72;;;16.70;94.50;;;;;;5003246;28;20225;-36
2023/05/29 01:51:47;;;;;;;10.23;5.85;;;16.70;95.30;;;;;;5002875;28;20972;-36
2023/05/29 01:54:16;;;;;;;9.00;5.35;;;16.60;94.80;;;;;;5003908;28;20806;-36
2023/05/29 01:56:47;;;;;;;10.10;5.95;;;16.60;94.80;;;;;;4989458;28;21067;-36
2023/05/29 01:59:22;;;;;;;11.52;5.55;;;16.50;95.00;;;;;;5000016;28;20301;-36
2023/05/29 02:01:49;;;;;;;10.80;5.68;;;16.50;94.80;;;;;;4985424;28;20672;-36
2023/05/29 02:04:19;;;;;;;16.58;6.18;;;16.50;95.00;;;;;;4983121;28;20602;-36
2023/05/29 02:06:49;;;;;;;8.27;5.95;;;16.40;96.10;;;;;;4988542;28;20232;-36
2023/05/29 02:09:17;;;;;;;9.95;5.95;;;16.40;95.50;;;;;;4991498;28;20292;-36
2023/05/29 02:11:45;;;;;;;9.40;5.28;;;16.30;95.90;;;;;;4987653;28;20224;-36
2023/05/29 02:14:13;;;;;;;12.55;5.65;;;16.20;94.80;;;;;;4991635;28;20214;-36
2023/05/29 02:16:45;;;;;;;13.25;6.15;;;16.20;95.80;;;;;;4996263;28;20225;-34
2023/05/29 02:19:12;;;;;;;8.98;5.00;;;16.20;95.60;;;;;;4994674;28;20216;-34
2023/05/29 02:21:42;;;;;;;8.35;5.30;;;16.20;95.20;;;;;;4985473;28;20659;-34
2023/05/29 02:24:15;;;;;;;10.80;5.75;;;16.10;95.40;;;;;;5000373;28;20741;-34
2023/05/29 02:26:50;;;;;;;11.65;6.32;;;16.10;95.50;;;;;;4992113;28;20508;-34
2023/05/29 02:29:19;;;;;;;12.13;5.40;;;16.00;96.00;;;;;;4990078;28;20202;-34
2023/05/29 02:31:49;;;;;;;8.63;5.20;;;16.00;95.60;;;;;;4997726;28;20209;-34
2023/05/29 02:34:18;;;;;;;9.43;5.38;;;15.90;95.50;;;;;;4983007;28;20232;-36
2023/05/29 02:36:49;;;;;;;13.50;5.90;;;16.00;95.40;;;;;;4997307;28;20676;-36
2023/05/29 02:39:16;;;;;;;10.93;5.72;;;15.90;95.40;;;;;;4995583;28;20205;-36
2023/05/29 02:41:49;;;;;;;11.85;5.80;;;15.90;95.20;;;;;;5001149;28;20225;-36
2023/05/29 02:44:16;;;;;;;12.73;5.55;;;15.90;95.60;;;;;;4996305;28;20267;-37
2023/05/29 02:46:43;;;;;;;12.70;5.20;;;15.80;95.80;;;;;;4983173;28;20309;-36
2023/05/29 02:49:10;;;;;;;9.13;5.10;;;15.80;96.20;;;;;;4982421;28;20206;-36
2023/05/29 02:51:38;;;;;;;10.57;5.13;;;15.70;95.80;;;;;;4982228;28;20215;-34
2023/05/29 02:54:07;;;;;;;7.97;4.57;;;15.70;95.60;;;;;;4987250;28;20314;-34
2023/05/29 02:56:37;;;;;;;9.88;4.35;;;15.50;96.20;;;;;;5000472;28;20240;-35
2023/05/29 02:59:07;;;;;;;14.55;4.97;;;15.50;95.70;;;;;;4978773;28;20205;-34
2023/05/29 03:01:37;;;;;;;8.45;4.57;;;15.40;96.20;;;;;;4990994;28;20213;-34
2023/05/29 03:04:06;;;;;;;12.73;4.93;;;15.40;95.70;;;;;;4968382;28;20217;-35
2023/05/29 03:06:36;;;;;;;9.45;3.83;;;15.30;95.70;;;;;;5000733;28;20215;-34
2023/05/29 03:09:06;;;;;;;9.40;4.70;;;15.30;95.10;;;;;;4995395;28;20694;-35
2023/05/29 03:11:40;;;;;;;11.88;4.10;;;15.30;95.40;;;;;;4986968;28;21606;-34
2023/05/29 03:14:08;;;;;;;11.43;4.18;;;15.20;95.40;;;;;;4989414;28;20248;-36
2023/05/29 03:16:38;;;;;;;9.23;3.22;;;15.20;94.80;;;;;;4995976;28;20691;-36
2023/05/29 03:19:05;;;;;;;11.65;3.80;;;15.20;94.70;;;;;;5001432;28;20315;-36
2023/05/29 03:21:33;;;;;;;11.73;3.83;;;15.20;95.20;;;;;;4989181;28;20197;-36
2023/05/29 03:24:05;;;;;;;12.50;3.50;;;15.20;94.70;;;;;;4987772;28;20218;-36
2023/05/29 03:26:38;;;;;;;7.63;3.63;;;15.20;94.60;;;;;;4988839;28;20694;-36
2023/05/29 03:29:05;;;;;;;8.60;3.70;;;15.20;95.00;;;;;;4966481;28;20240;-36
2023/05/29 03:31:39;;;;;;;7.93;3.30;;;15.10;94.90;;;;;;4990545;28;20363;-36
2023/05/29 03:34:09;;;;;;;10.38;3.50;;;15.10;94.70;;;;;;4984619;28;20213;-41
2023/05/29 03:36:36;;;;;;;9.85;3.67;;;15.10;94.80;;;;;;4965566;28;20244;-36
2023/05/29 03:39:04;;;;;;;14.48;3.50;;;15.10;94.80;;;;;;4994758;28;20818;-36
2023/05/29 03:41:33;;;;;;;9.05;3.30;;;15.00;94.70;;;;;;4963400;28;20238;-36
2023/05/29 03:44:01;;;;;;;8.63;3.45;;;15.00;94.60;;;;;;4987794;28;20297;-36
2023/05/29 03:46:28;;;;;;;12.23;3.90;;;15.00;94.30;;;;;;4993505;28;20225;-36
2023/05/29 03:49:00;;;;;;;12.65;3.92;;;14.90;94.30;;;;;;4980750;28;20580;-36
2023/05/29 03:51:27;;;;;;;10.55;3.50;;;14.90;94.60;;;;;;4993806;28;20210;-36
2023/05/29 03:53:54;;;;;;;12.32;3.08;;;14.90;94.20;;;;;;4993551;28;20723;-36
2023/05/29 03:56:23;;;;;;;10.20;3.30;;;14.80;94.60;;;;;;4980796;28;20296;-36
2023/05/29 03:58:55;;;;;;;10.18;3.13;;;14.80;94.50;;;;;;4987326;28;20221;-36
2023/05/29 04:01:25;;;;;;;8.38;3.15;;;14.70;94.70;;;;;;4988712;28;20206;-37
2023/05/29 04:03:55;;;;;;;11.23;3.20;;;14.70;94.20;;;;;;4991562;28;20214;-36
2023/05/29 04:06:25;;;;;;;9.63;3.78;;;14.70;94.40;;;;;;5002508;28;20828;-36
2023/05/29 04:08:55;;;;;;;12.30;3.40;;;14.70;94.30;;;;;;4998417;28;20229;-36
2023/05/29 04:11:25;;;;;;;11.48;3.15;;;14.70;94.20;;;;;;4996715;28;20313;-36
2023/05/29 04:13:55;;;;;;;8.60;3.58;;;14.60;94.50;;;;;;4997991;28;20218;-36
2023/05/29 04:16:24;;;;;;;8.98;2.85;;;14.60;94.40;;;;;;4996749;28;20229;-36
2023/05/29 04:18:52;;;;;;;17.70;3.70;;;14.60;94.30;;;;;;4996998;28;20583;-36
2023/05/29 04:21:19;;;;;;;11.27;3.38;;;14.60;94.10;;;;;;4994812;28;20249;-36
2023/05/29 04:23:46;;;;;;;10.75;3.50;;;14.60;94.20;;;;;;4988087;28;20202;-36
2023/05/29 04:26:18;;;;;;;13.10;3.17;;;14.60;94.20;;;;;;4984888;28;20210;-36
2023/05/29 04:28:52;;;;;;;10.93;3.30;;;14.60;93.90;;;;;;4985783;28;20217;-34
2023/05/29 04:31:22;;;;;;;10.25;4.00;;;14.60;94.20;;;;;;4988938;28;20217;-35
2023/05/29 04:33:54;;;;;;;9.25;3.35;;;14.50;94.20;;;;;;4994068;28;20205;-34
2023/05/29 04:36:25;;;;;;;10.68;3.13;;;14.40;94.10;;;;;;4990828;28;20237;-34
2023/05/29 04:38:57;;;;;;;9.00;2.65;;;14.50;93.90;;;;;;4986455;28;20730;-34
2023/05/29 04:41:30;;;;;;;9.73;2.72;;;14.40;94.10;;;;;;4986151;28;20217;-34
2023/05/29 04:44:01;;;;;;;10.13;3.10;;;14.40;94.20;;;;;;4977126;28;20205;-35
2023/05/29 04:46:28;;;;;;;7.63;2.65;;;14.40;94.40;;;;;;4984418;28;20213;-34
2023/05/29 04:48:56;;;;;;;11.25;3.05;;;14.40;94.20;;;;;;4997838;28;20229;-34
2023/05/29 04:51:24;;;;;;;8.68;3.00;;;14.40;94.40;;;;;;4984222;28;20321;-35
2023/05/29 04:53:54;;;;;;;8.40;3.35;;;14.40;94.00;;;;;;4992293;28;20237;-35
2023/05/29 04:56:22;;;;;;;8.88;2.92;;;14.40;94.40;;;;;;4985616;28;20226;-34
2023/05/29 04:58:52;;;;;;;12.23;2.88;;;14.30;94.40;;;;;;4988313;28;20331;-34
2023/05/29 05:01:23;;;;;;;12.32;3.30;;;14.30;94.40;;;;;;4990970;28;20206;-34
2023/05/29 05:03:52;;;;;;;10.10;2.97;;;14.30;94.50;;;;;;4990192;28;20206;-34
2023/05/29 05:06:25;;;;;;;6.82;2.72;;;14.30;94.60;;;;;;4993301;28;20288;-35
2023/05/29 05:08:53;;;;;;;14.15;3.55;;;14.30;94.30;;;;;;4988592;28;20202;-34
2023/05/29 05:11:21;;;;;;;8.82;3.10;;;14.30;94.40;;;;;;5001194;28;20619;-34
2023/05/29 05:13:51;;;;;;;8.57;2.80;;;14.30;94.30;;;;;;5003132;28;20276;-34
2023/05/29 05:16:21;;;;;;;12.52;3.13;;;14.30;93.90;;;;;;4986983;28;20595;-34
2023/05/29 05:18:53;;;;;;;11.98;3.13;;;14.30;94.30;;;;;;4994166;28;20214;-35
2023/05/29 05:21:20;;;;;;;15.77;3.58;;;14.30;94.40;;;;;;5003028;28;20263;-34
2023/05/29 05:23:47;;;;;;;11.43;2.97;;;14.20;95.00;;;;;;4988413;28;20248;-34
2023/05/29 05:26:27;;;;;;;13.85;3.22;;;14.20;94.50;;;;;;4990190;28;20658;-34
2023/05/29 05:28:54;;;;;;;13.53;3.27;;;14.20;94.50;;;;;;4981185;28;20345;-34
2023/05/29 05:31:22;;;;;;;8.30;3.00;;;14.20;94.80;;;;;;4990513;28;20702;-34
2023/05/29 05:33:49;;;;;;;10.25;3.13;;;14.30;94.90;;;;;;4985763;28;20202;-34
2023/05/29 05:36:16;;;;;;;11.55;3.22;;;14.30;94.80;;;;;;4993171;28;20229;-34
2023/05/29 05:38:43;;;;;;;11.82;3.25;;;14.30;94.70;;;;;;4992428;28;20223;-34
2023/05/29 05:41:11;;;;;;;9.95;3.20;;;14.30;94.40;;;;;;4993878;28;20566;-34
2023/05/29 05:43:41;;;;;;;10.38;2.97;;;14.40;94.50;;;;;;5000041;28;20205;-36
2023/05/29 05:46:13;;;;;;;14.13;3.70;;;14.40;94.60;;;;;;4994191;28;20210;-36
2023/05/29 05:48:45;;;;;;;13.50;3.13;;;14.40;94.30;;;;;;4998472;28;20245;-36
2023/05/29 05:51:13;;;;;;;10.55;3.00;;;14.50;94.50;;;;;;4985279;28;20209;-36
2023/05/29 05:53:45;;;;;;;10.75;3.40;;;14.50;94.40;;;;;;4982407;28;20301;-36
2023/05/29 05:56:15;;;;;;;12.80;2.58;;;14.50;94.40;;;;;;4993481;28;20230;-36
2023/05/29 05:58:44;;;;;;;11.50;3.03;;;14.50;94.70;;;;;;4986362;28;20235;-36
2023/05/29 06:01:14;;;;;;;10.43;3.08;;;14.40;94.70;;;;;;4999356;28;20769;-36
2023/05/29 06:03:45;;;;;;;10.32;3.03;;;14.40;94.80;;;;;;4991462;28;20290;-36
2023/05/29 06:06:14;;;;;;;8.15;2.50;;;14.40;94.90;;;;;;4977988;28;20742;-36
2023/05/29 06:08:42;;;;;;;17.25;3.58;;;14.40;94.60;;;;;;4986193;28;20229;-36
2023/05/29 06:11:12;;;;;;;13.02;3.08;;;14.40;95.00;;;;;;4983810;28;20222;-36
2023/05/29 06:13:42;;;;;;;9.57;2.80;;;14.40;95.00;;;;;;4985580;28;20266;-36
2023/05/29 06:16:09;;;;;;;11.40;3.30;;;14.40;94.90;;;;;;4989977;28;20225;-36
2023/05/29 06:18:41;;;;;;;11.40;3.10;;;14.30;95.40;;;;;;4982860;28;20787;-38
2023/05/29 06:21:12;;;;;;;12.03;3.23;;;14.40;94.90;;;;;;4984054;28;20309;-37
2023/05/29 06:23:44;;;;;;;13.37;3.47;;;14.40;95.30;;;;;;4987841;28;20205;-37
2023/05/29 06:26:17;;;;;;;12.88;3.28;;;14.50;95.20;;;;;;4999405;28;20237;-37
2023/05/29 06:28:44;;;;;;;12.18;3.08;;;14.50;95.30;;;;;;5002318;28;20471;-37
2023/05/29 06:31:14;;;;;;;11.30;2.85;;;14.50;95.30;;;;;;4983899;28;20213;-38
2023/05/29 06:33:41;;;;;;;8.80;2.97;;;14.60;95.30;;;;;;4984721;28;20625;-37
2023/05/29 06:36:11;;;;;;;12.98;3.53;;;14.70;95.30;;;;;;4981828;28;20226;-37
2023/05/29 06:38:38;;;;;;;11.25;3.45;;;14.70;95.30;;;;;;5002170;28;20567;-37
2023/05/29 06:41:05;;;;;;;9.43;2.97;;;14.80;95.30;;;;;;5004894;28;20205;-37
2023/05/29 06:43:33;;;;;;;11.52;3.10;;;14.80;95.70;;;;;;5001720;28;20209;-37
2023/05/29 06:46:00;;;;;;;14.30;3.67;;;14.80;95.80;;;;;;4991194;28;20211;-37
2023/05/29 06:48:34;;;;;;;9.95;2.40;;;14.70;95.80;;;;;;4980079;28;20248;-37
2023/05/29 06:51:11;;;;;;;9.88;2.85;;;14.80;95.40;;;;;;4997091;28;20219;-37
2023/05/29 06:53:41;;;;;;;11.65;3.10;;;14.90;95.30;;;;;;4998266;28;20221;-37
2023/05/29 06:56:16;;;;;;;13.88;3.50;;;15.00;95.30;;;;;;4985009;28;20214;-38
2023/05/29 06:58:45;;;;;;;10.03;2.90;;;15.00;95.80;;;;;;5009654;28;20639;-37
2023/05/29 07:01:12;;;;;;;9.73;2.73;;;15.00;95.30;;;;;;4994251;28;20604;-37
2023/05/29 07:03:40;;;;;;;9.73;3.30;;;15.10;95.30;;;;;;4996482;28;20206;-36
2023/05/29 07:06:12;;;;;;;10.80;3.50;;;15.20;95.50;;;;;;4983247;28;20592;-36
2023/05/29 07:08:41;;;;;;;9.93;3.63;;;15.20;95.50;;;;;;5000714;28;20209;-36
2023/05/29 07:11:09;;;;;;;10.35;2.90;;;15.20;95.60;;;;;;4995498;28;20313;-36
2023/05/29 07:13:36;;;;;;;14.13;3.20;;;15.30;95.50;;;;;;4977585;28;20525;-36
2023/05/29 07:16:04;;;;;;;15.05;2.95;;;15.30;95.20;;;;;;4992677;28;20259;-36
2023/05/29 07:18:52;;;;;;;9.57;2.67;;;15.30;95.20;;;;;;4991321;28;20241;-36
2023/05/29 07:21:21;;;;;;;8.27;3.00;;;15.40;95.20;;;;;;4982410;28;20199;-37
2023/05/29 07:23:48;;;;;;;12.00;3.00;;;15.50;95.20;;;;;;4986710;28;20312;-36
2023/05/29 07:26:18;;;;;;;10.27;3.20;;;15.50;95.20;;;;;;5000089;28;20709;-36
2023/05/29 07:28:48;;;;;;;10.25;2.70;;;15.60;95.20;;;;;;4998692;28;20235;-36
2023/05/29 07:31:17;;;;;;;9.30;2.80;;;15.70;95.30;;;;;;4992308;28;20216;-36
2023/05/29 07:33:44;;;;;;;9.25;2.92;;;15.70;95.10;;;;;;4983916;28;20565;-36
2023/05/29 07:36:14;;;;;;;9.02;2.72;;;15.70;95.30;;;;;;4989923;28;20217;-36
2023/05/29 07:38:41;;;;;;;16.45;3.58;;;15.70;95.10;;;;;;4978623;28;20218;-36
2023/05/29 07:41:11;;;;;;;7.18;2.33;;;15.60;95.50;;;;;;4993081;28;20215;-36
2023/05/29 07:43:40;;;;;;;9.30;3.07;;;15.70;95.20;;;;;;4981760;28;20222;-36
2023/05/29 07:46:13;;;;;;;9.80;3.00;;;15.80;95.30;;;;;;4990793;28;20224;-35
2023/05/29 07:48:43;;;;;;;13.65;3.30;;;15.80;95.40;;;;;;4992137;28;20300;-35
2023/05/29 07:51:10;;;;;;;12.00;2.80;;;15.90;95.50;;;;;;5003371;28;20210;-36
2023/05/29 07:53:42;;;;;;;12.02;3.20;;;15.80;95.40;;;;;;4983681;28;20746;-35
2023/05/29 07:56:11;;;;;;;7.50;3.08;;;15.90;95.60;;;;;;4989777;28;20293;-36
2023/05/29 07:58:43;;;;;;;11.10;2.70;;;15.90;95.40;;;;;;4984713;28;20242;-35
2023/05/29 08:01:12;;;;;;;12.73;3.40;;;15.90;95.40;;;;;;4984635;28;20218;-35
2023/05/29 08:03:43;;;;;;;9.50;2.30;;;15.90;95.60;;;;;;5010208;28;20530;-36
2023/05/29 08:06:11;;;;;;;10.68;2.58;;;16.00;95.40;;;;;;4981715;28;20210;-35
2023/05/29 08:08:42;;;;;;;9.55;2.85;;;16.00;95.30;;;;;;4999040;28;20217;-35
2023/05/29 08:11:10;;;;;;;13.65;2.90;;;16.10;95.50;;;;;;4995067;28;20207;-37
2023/05/29 08:13:40;;;;;;;10.98;2.80;;;16.20;95.30;;;;;;4980050;28;20213;-35
2023/05/29 08:16:14;;;;;;;8.25;2.72;;;16.20;95.40;;;;;;4986555;28;20488;-35
2023/05/29 08:18:43;;;;;;;8.80;3.28;;;16.20;95.30;;;;;;4996968;28;20212;-35
2023/05/29 08:21:11;;;;;;;14.73;2.80;;;16.30;95.30;;;;;;4991169;28;20210;-35
2023/05/29 08:23:38;;;;;;;7.60;2.80;;;16.40;95.40;;;;;;4987619;28;20213;-37
2023/05/29 08:26:08;;;;;;;10.40;2.95;;;16.50;95.40;;;;;;4983112;28;20692;-37
2023/05/29 08:28:38;;;;;;;10.07;2.65;;;16.60;95.50;;;;;;4984314;28;20477;-37
2023/05/29 08:31:08;;;;;;;10.50;2.67;;;16.70;95.50;;;;;;4985174;28;20210;-37
2023/05/29 08:33:36;;;;;;;10.23;2.92;;;16.80;95.50;;;;;;4980116;28;20206;-37
2023/05/29 08:36:04;;;;;;;9.50;3.30;;;16.80;95.40;;;;;;4966283;28;20407;-37
2023/05/29 08:38:36;;;;;;;6.63;2.42;;;16.80;95.40;;;;;;4977974;28;20241;-35
2023/05/29 08:41:07;;;;;;;12.02;3.40;;;16.90;95.70;;;;;;4998124;28;20202;-36
2023/05/29 08:43:41;;;;;;;8.63;2.60;;;17.00;95.40;;;;;;4982289;28;20288;-36
2023/05/29 08:46:12;;;;;;;11.15;3.10;;;17.00;95.40;;;;;;4990402;28;20248;-36
2023/05/29 08:48:47;;;;;;;10.75;2.90;;;17.00;95.50;;;;;;4993587;28;20300;-36
2023/05/29 08:51:29;;;;;;;10.32;3.17;;;17.10;95.30;;;;;;4985415;28;20214;-34
2023/05/29 08:53:59;;;;;;;10.45;2.88;;;17.10;95.40;;;;;;4997482;28;20407;-35
2023/05/29 08:56:27;;;;;;;9.63;2.67;;;17.00;95.40;;;;;;5006437;28;20201;-35
2023/05/29 08:59:02;;;;;;;11.30;3.50;;;17.00;95.40;;;;;;5002595;28;20209;-34
2023/05/29 09:01:38;;;;;;;9.00;2.83;;;17.00;95.50;;;;;;4982074;28;20237;-34
2023/05/29 09:04:10;;;;;;;9.43;2.88;;;17.00;95.60;;;;;;4987710;28;20221;-35
2023/05/29 09:06:41;;;;;;;16.58;3.72;;;17.10;95.60;;;;;;4994063;28;20210;-35
2023/05/29 09:09:11;;;;;;;12.20;3.72;;;17.20;95.50;;;;;;4986942;28;20262;-35
2023/05/29 09:11:44;;;;;;;11.48;3.60;;;17.20;95.50;;;;;;4987680;28;20230;-35
2023/05/29 09:14:36;;;;;;;14.00;3.33;;;17.30;95.50;;;;;;5004367;28;20213;-34
2023/05/29 09:17:06;;;;;;;10.40;3.20;;;17.30;95.50;;;;;;4994597;28;20252;-34
2023/05/29 09:19:34;;;;;;;12.13;3.65;;;17.40;95.40;;;;;;5002240;28;20662;-34
2023/05/29 09:22:07;;;;;;;10.23;3.22;;;17.50;95.40;;;;;;4988588;28;20210;-34
2023/05/29 09:24:40;;;;;;;10.30;2.47;;;17.50;95.40;;;;;;4989533;28;21050;-33
2023/05/29 09:27:12;;;;;;;8.07;2.28;;;17.50;95.40;;;;;;4991539;28;20644;-35
2023/05/29 09:29:48;;;;;;;9.55;2.53;;;17.50;95.40;;;;;;4978989;28;20213;-34
2023/05/29 09:32:18;;;;;;;8.73;2.58;;;17.60;95.20;;;;;;4986080;28;20206;-33
2023/05/29 09:34:46;;;;;;;10.90;2.78;;;17.60;95.20;;;;;;4991928;28;20213;-34
2023/05/29 09:37:21;;;;;;;10.05;3.20;;;17.60;95.20;;;;;;4994136;28;20324;-34
2023/05/29 09:39:51;;;;;;;12.60;3.08;;;17.60;95.30;;;;;;4988607;28;20201;-34
2023/05/29 09:42:24;;;;;;;10.95;3.33;;;17.60;95.30;;;;;;4991353;28;20209;-34
2023/05/29 09:44:53;;;;;;;12.45;2.88;;;17.70;95.30;;;;;;4976577;28;20194;-34
2023/05/29 09:47:22;;;;;;;11.50;3.45;;;17.80;95.40;;;;;;4990444;28;20213;-33
2023/05/29 09:49:50;;;;;;;9.75;3.15;;;17.80;95.30;;;;;;4996042;28;20913;-35
2023/05/29 09:52:22;;;;;;;8.57;2.63;;;17.90;95.30;;;;;;4984297;28;20218;-35
2023/05/29 09:54:50;;;;;;;13.27;2.95;;;18.00;95.30;;;;;;4998692;28;20450;-34
2023/05/29 09:57:18;;;;;;;10.98;3.17;;;18.10;95.40;;;;;;4994789;28;20669;-34
2023/05/29 09:59:51;;;;;;;11.48;3.65;;;18.10;95.30;;;;;;4997471;28;20313;-33
2023/05/29 10:02:25;;;;;;;14.27;3.58;;;18.20;95.20;;;;;;4987115;28;20279;-33
2023/05/29 10:04:55;;;;;;;9.68;3.50;;;18.20;95.10;;;;;;4988071;28;20555;-33
2023/05/29 10:07:27;;;;;;;11.35;2.72;;;18.20;95.10;;;;;;4990259;28;20212;-33
2023/05/29 10:10:01;;;;;;;10.60;3.00;;;18.10;95.00;;;;;;4990178;28;20233;-33
2023/05/29 10:12:38;;;;;;;9.48;2.92;;;18.20;95.10;;;;;;4986975;28;20236;-33
2023/05/29 10:15:14;;;;;;;13.13;3.60;;;18.20;95.10;;;;;;4986630;28;20238;-33
2023/05/29 10:17:56;;;;;;;13.85;3.30;;;18.20;94.80;;;;;;4989083;28;20267;-33
2023/05/29 10:20:25;;;;;;;11.75;3.42;;;18.30;95.10;;;;;;4984948;28;20659;-33
2023/05/29 10:22:56;;;;;;;8.45;3.13;;;18.30;94.90;;;;;;4988698;28;20202;-33
2023/05/29 10:25:32;;;;;;;10.68;3.25;;;18.40;95.10;;;;;;4990695;28;20214;-33
2023/05/29 10:28:02;;;;;;;13.05;3.30;;;18.40;95.00;;;;;;4997547;28;20213;-33
2023/05/29 10:30:38;;;;;;;10.38;3.22;;;18.50;95.00;;;;;;4988385;28;20232;-33
2023/05/29 10:33:14;;;;;;;12.80;3.50;;;18.50;95.00;;;;;;4986798;28;20206;-33
2023/05/29 10:35:47;;;;;;;10.38;3.10;;;18.60;95.10;;;;;;4987615;28;20226;-33
2023/05/29 10:38:18;;;;;;;11.60;3.97;;;18.60;95.10;;;;;;4982961;28;20229;-33
2023/05/29 10:40:50;;;;;;;8.35;3.35;;;18.70;94.90;;;;;;4981614;28;20615;-33
2023/05/29 10:43:37;;;;;;;10.43;3.05;;;18.70;95.00;;;;;;4994159;28;20197;-34
2023/05/29 10:46:04;;;;;;;11.52;3.10;;;18.70;94.60;;;;;;4989128;28;20916;-34
2023/05/29 10:48:38;;;;;;;8.18;3.20;;;18.60;94.50;;;;;;4993023;28;20220;-33
2023/05/29 10:51:07;;;;;;;10.55;3.50;;;18.70;94.80;;;;;;5002082;28;20205;-33
2023/05/29 10:53:42;;;;;;;8.35;2.90;;;18.60;94.60;;;;;;4992767;28;20214;-33
2023/05/29 10:56:22;;;;;;;8.40;2.95;;;18.60;94.60;;;;;;4981784;28;20206;-33
2023/05/29 10:58:54;;;;;;;10.15;3.08;;;18.70;94.70;;;;;;4982000;28;20239;-34
2023/05/29 11:01:30;;;;;;;11.30;2.97;;;18.80;94.50;;;;;;4996476;28;20590;-34
2023/05/29 11:04:15;;;;;;;9.50;2.63;;;18.90;94.80;;;;;;4985076;28;20538;-32
2023/05/29 11:06:45;;;;;;;10.25;3.05;;;18.90;94.90;;;;;;4992570;28;20217;-34
2023/05/29 11:09:37;;;;;;;9.43;3.03;;;19.00;94.80;;;;;;5001631;28;20208;-33
2023/05/29 11:12:35;;;;;;;7.82;2.83;;;19.00;94.40;;;;;;5001120;28;20217;-32
2023/05/29 11:15:10;;;;;;;7.32;2.78;;;19.10;94.80;;;;;;4990432;28;20838;-32
2023/05/29 11:17:38;;;;;;;12.10;3.15;;;19.20;94.90;;;;;;4993479;28;20275;-32
2023/05/29 11:20:18;;;;;;;10.10;2.90;;;19.20;94.40;;;;;;4983847;28;20333;-32
2023/05/29 11:23:03;;;;;;;8.30;3.00;;;19.20;94.70;;;;;;4989642;28;20689;-32
2023/05/29 11:25:35;;;;;;;12.82;3.03;;;19.30;94.80;;;;;;4989702;28;20206;-34
2023/05/29 11:28:08;;;;;;;11.30;2.78;;;19.40;94.80;;;;;;4996185;28;20646;-32
2023/05/29 11:30:50;;;;;;;11.88;3.30;;;19.50;94.60;;;;;;4983238;28;20291;-32
2023/05/29 11:33:28;;;;;;;9.90;2.92;;;19.50;94.40;;;;;;4982636;28;20210;-32
2023/05/29 11:36:03;;;;;;;12.02;2.88;;;19.50;94.40;;;;;;4994025;28;20223;-32
2023/05/29 11:38:31;;;;;;;8.80;3.00;;;19.60;94.60;;;;;;4973791;28;20221;-32
2023/05/29 11:41:00;;;;;;;11.57;3.53;;;19.60;94.70;;;;;;4990635;28;20198;-32
2023/05/29 11:43:31;;;;;;;9.75;2.92;;;19.70;94.70;;;;;;4999135;28;20197;-32
2023/05/29 11:45:58;;;;;;;10.27;3.08;;;19.70;94.80;;;;;;4984007;28;20202;-35
2023/05/29 11:48:25;;;;;;;7.32;2.85;;;19.80;94.80;;;;;;4982482;28;20226;-32
2023/05/29 11:50:57;;;;;;;8.30;2.30;;;19.80;94.90;;;;;;4982755;28;20284;-32
2023/05/29 11:53:26;;;;;;;11.73;2.80;;;20.00;94.90;;;;;;4986089;28;20566;-35
2023/05/29 11:55:55;;;;;;;8.27;3.22;;;20.00;94.90;;;;;;4983586;28;20213;-35
2023/05/29 11:58:22;;;;;;;10.10;3.08;;;20.10;94.70;;;;;;4985948;28;20336;-35
2023/05/29 12:00:52;;;;;;;8.50;2.78;;;20.00;94.20;;;;;;4986976;28;20201;-35
2023/05/29 12:03:21;;;;;;;12.85;2.55;;;20.10;94.80;;;;;;4986522;28;20206;-35
2023/05/29 12:05:55;;;;;;;7.95;2.55;;;20.10;94.70;;;;;;4987963;28;20836;-32
2023/05/29 12:08:29;;;;;;;11.73;3.30;;;20.30;94.70;;;;;;4985447;28;20205;-33
2023/05/29 12:10:59;;;;;;;8.48;2.60;;;20.40;94.60;;;;;;4969568;28;20260;-34
2023/05/29 12:13:26;;;;;;;6.93;2.50;;;20.40;94.50;;;;;;4998339;28;20225;-35
2023/05/29 12:16:02;;;;;;;7.90;2.65;;;20.50;94.70;;;;;;5001234;28;20672;-35
2023/05/29 12:18:33;;;;;;;10.98;3.33;;;20.50;94.00;;;;;;4995900;28;20602;-34
2023/05/29 12:21:01;;;;;;;6.95;2.25;;;20.50;94.70;;;;;;4989206;28;20241;-35
2023/05/29 12:23:34;;;;;;;8.45;3.13;;;20.60;94.60;;;;;;4993440;28;20695;-35
2023/05/29 12:26:03;;;;;;;10.15;3.63;;;20.60;94.30;;;;;;4997270;28;20696;-35
2023/05/29 12:28:30;;;;;;;8.18;2.50;;;20.60;94.00;;;;;;4984047;28;20570;-33
2023/05/29 12:30:59;;;;;;;7.97;2.95;;;20.70;94.60;;;;;;4987099;28;20222;-33
2023/05/29 12:33:31;;;;;;;7.03;2.78;;;20.70;94.20;;;;;;4995016;28;20603;-32
2023/05/29 12:36:09;;;;;;;6.80;2.63;;;20.80;94.20;;;;;;4988782;28;20687;-34
2023/05/29 12:38:57;;;;;;;5.75;2.70;;;20.90;94.40;;;;;;4986565;28;21200;-37
2023/05/29 12:41:29;;;;;;;7.45;2.60;;;20.90;94.70;;;;;;4994004;28;20668;-37
2023/05/29 12:44:01;;;;;;;6.80;2.90;;;21.00;94.80;;;;;;4989911;28;20209;-37
2023/05/29 12:46:42;;;;;;;7.70;3.00;;;21.10;94.00;;;;;;4991504;28;20285;-37
2023/05/29 12:49:15;;;;;;;7.65;3.03;;;21.20;94.60;;;;;;4984518;28;20302;-37
2023/05/29 12:51:44;;;;;;;7.57;2.97;;;21.20;94.20;;;;;;4988416;28;20263;-37
2023/05/29 12:54:12;;;;;;;10.52;2.88;;;21.20;94.00;;;;;;4990190;28;20206;-37
2023/05/29 12:56:40;;;;;;;8.02;3.13;;;21.20;93.90;;;;;;4990324;28;20218;-34
2023/05/29 12:59:14;;;;;;;8.25;3.13;;;21.20;94.20;;;;;;4984121;28;20234;-34